Time;durP1;ratioP1;P1;durP2;ratioP2;P2;SDS_P1;SDS_P2;PMS_P1;PMS_P2;Temp;Humidity;BMP_temperature;BMP_pressure;BME280_temperature;BME280_humidity;BME280_pressure;Samples;Min_cycle;Max_cycle;Signal;HPM_P1;HPM_P2
2022/05/22 00:00:19;;;;;;;;;;;;;;;20.41;46.88;102048.66;6102226;23;20273;-75
2022/05/22 00:02:45;;;;;;;;;;;;;;;20.38;46.84;102043.44;6127680;23;19916;-75
2022/05/22 00:05:11;;;;;;;;;;;;;;;20.36;46.84;102050.44;6127586;23;19913;-75
2022/05/22 00:07:37;;;;;;;;;;;;;;;20.34;46.77;102028.66;6127643;23;19936;-76
2022/05/22 00:10:03;;;;;;;;;;;;;;;20.33;46.87;102035.59;6128228;23;19991;-75
2022/05/22 00:12:28;;;;;;;;;;;;;;;20.34;46.78;102037.34;6127203;23;20349;-75
2022/05/22 00:14:53;;;;;;;;;;;;;;;20.35;46.77;102030.38;6127842;23;19913;-74
2022/05/22 00:17:19;;;;;;;;;;;;;;;20.35;46.77;102028.63;6128039;23;19953;-75
2022/05/22 00:19:44;;;;;;;;;;;;;;;20.33;46.87;102030.38;6101673;23;19913;-75
2022/05/22 00:22:09;;;;;;;;;;;;;;;20.34;46.86;102015.56;6127542;23;19913;-75
2022/05/22 00:24:35;;;;;;;;;;;;;;;20.34;46.91;102013.81;6127960;23;19916;-75
2022/05/22 00:27:02;;;;;;;;;;;;;;;20.34;46.97;102012.97;6127549;23;19909;-75
2022/05/22 00:29:27;;;;;;;;;;;;;;;20.33;46.93;102011.19;6101313;23;19916;-75
2022/05/22 00:31:53;;;;;;;;;;;;;;;20.32;46.88;102005.13;6101467;23;19912;-75
2022/05/22 00:34:18;;;;;;;;;;;;;;;20.32;46.92;102007.72;6127978;23;19913;-75
2022/05/22 00:36:43;;;;;;;;;;;;;;;20.32;47.07;102002.50;6127658;23;19909;-75
2022/05/22 00:39:09;;;;;;;;;;;;;;;20.33;46.99;101993.78;6126575;23;19909;-75
2022/05/22 00:41:35;;;;;;;;;;;;;;;20.31;47.06;102003.34;6127507;23;19909;-75
2022/05/22 00:44:01;;;;;;;;;;;;;;;20.29;47.03;101989.41;6101450;23;19909;-75
2022/05/22 00:46:26;;;;;;;;;;;;;;;20.30;46.98;101999.00;6127460;23;20014;-74
2022/05/22 00:49:00;;;;;;;;;;;;;;;20.31;46.88;102002.50;6127238;23;19913;-74
2022/05/22 00:51:35;;;;;;;;;;;;;;;20.31;46.94;101986.81;6127479;23;19909;-74
2022/05/22 00:54:02;;;;;;;;;;;;;;;20.30;46.93;101977.25;6101635;23;19991;-74
2022/05/22 00:56:35;;;;;;;;;;;;;;;20.29;46.92;101980.72;6127375;23;19979;-74
2022/05/22 00:59:01;;;;;;;;;;;;;;;20.30;46.90;101982.47;6101702;23;19940;-74
2022/05/22 01:01:28;;;;;;;;;;;;;;;20.25;47.05;101982.50;6127342;23;19924;-74
2022/05/22 01:03:55;;;;;;;;;;;;;;;20.24;47.00;101980.72;6101999;23;19920;-75
2022/05/22 01:06:24;;;;;;;;;;;;;;;20.23;46.97;101983.34;6127721;23;20249;-75
2022/05/22 01:08:49;;;;;;;;;;;;;;;20.25;47.00;101990.31;6127300;23;19940;-75
2022/05/22 01:11:18;;;;;;;;;;;;;;;20.26;47.10;101999.91;6127386;23;20337;-75
2022/05/22 01:13:45;;;;;;;;;;;;;;;20.27;47.13;102003.38;6127294;23;19921;-75
2022/05/22 01:16:10;;;;;;;;;;;;;;;20.24;47.00;102006.88;6127371;23;19992;-75
2022/05/22 01:18:40;;;;;;;;;;;;;;;20.25;46.99;102007.72;6101525;23;19940;-75
2022/05/22 01:21:10;;;;;;;;;;;;;;;20.26;46.96;102006.88;6128050;23;20322;-75
2022/05/22 01:23:35;;;;;;;;;;;;;;;20.24;47.00;102009.47;6127124;23;19912;-75
2022/05/22 01:26:00;;;;;;;;;;;;;;;20.23;47.07;102002.53;6127705;23;19920;-75
2022/05/22 01:28:25;;;;;;;;;;;;;;;20.23;47.06;101991.19;6127147;23;19960;-75
2022/05/22 01:30:50;;;;;;;;;;;;;;;20.25;46.95;101992.03;6127613;23;19909;-75
2022/05/22 01:33:16;;;;;;;;;;;;;;;20.25;47.20;101979.88;6127979;23;19964;-75
2022/05/22 01:35:41;;;;;;;;;;;;;;;20.25;47.06;101977.25;6101589;23;19920;-75
2022/05/22 01:38:07;;;;;;;;;;;;;;;20.25;47.19;101978.97;6126933;23;19909;-75
2022/05/22 01:40:33;;;;;;;;;;;;;;;20.26;47.03;101971.13;6102632;23;20314;-75
2022/05/22 01:42:58;;;;;;;;;;;;;;;20.24;47.24;101958.97;6129013;23;19913;-75
2022/05/22 01:45:25;;;;;;;;;;;;;;;20.24;47.13;101956.34;6129347;23;20313;-75
2022/05/22 01:47:50;;;;;;;;;;;;;;;20.25;47.25;101955.44;6128702;23;20326;-75
2022/05/22 01:50:16;;;;;;;;;;;;;;;20.25;47.10;101955.44;6129008;23;19920;-75
2022/05/22 01:52:42;;;;;;;;;;;;;;;20.26;47.13;101949.38;6128840;23;20007;-75
2022/05/22 01:55:08;;;;;;;;;;;;;;;20.24;47.15;101949.38;6102664;23;19909;-75
2022/05/22 01:57:33;;;;;;;;;;;;;;;20.21;47.24;101944.16;6128983;23;20381;-75
2022/05/22 01:59:59;;;;;;;;;;;;;;;20.21;47.24;101941.53;6128971;23;19908;-75
2022/05/22 02:02:24;;;;;;;;;;;;;;;20.21;47.13;101949.38;6129414;23;19913;-84
2022/05/22 02:04:50;;;;;;;;;;;;;;;20.20;47.18;101945.00;6103259;23;19913;-84
2022/05/22 02:09:59;;;;;;;;;;;;;;;20.19;47.29;101945.91;6107149;23;20396;-84
2022/05/22 02:12:24;;;;;;;;;;;;;;;20.18;47.20;101944.16;6128844;23;19921;-85
2022/05/22 02:14:50;;;;;;;;;;;;;;;20.19;47.19;101943.28;6129361;23;19913;-85
2022/05/22 02:17:15;;;;;;;;;;;;;;;20.18;47.18;101944.16;6103515;23;20379;-85
2022/05/22 02:19:40;;;;;;;;;;;;;;;20.19;47.08;101948.53;6129276;23;19916;-85
2022/05/22 02:22:05;;;;;;;;;;;;;;;20.16;47.05;101943.28;6129299;23;19944;-84
2022/05/22 02:24:31;;;;;;;;;;;;;;;20.15;47.12;101938.94;6103297;23;19988;-84
2022/05/22 02:26:56;;;;;;;;;;;;;;;20.14;47.26;101924.13;6129260;23;19940;-85
2022/05/22 02:29:21;;;;;;;;;;;;;;;20.13;47.33;101931.09;6103298;23;19913;-85
2022/05/22 02:31:47;;;;;;;;;;;;;;;20.14;47.06;101924.13;6103199;23;19917;-85
2022/05/22 02:34:12;;;;;;;;;;;;;;;20.13;47.08;101923.25;6128915;23;19909;-84
2022/05/22 02:36:37;;;;;;;;;;;;;;;20.10;47.28;101925.91;6102836;23;19917;-84
2022/05/22 02:39:03;;;;;;;;;;;;;;;20.11;47.28;101925.00;6128993;23;20011;-84
2022/05/22 02:41:28;;;;;;;;;;;;;;;20.11;47.29;101925.00;6079129;23;19913;-85
2022/05/22 02:43:54;;;;;;;;;;;;;;;20.12;47.22;101929.38;6128840;23;19909;-85
2022/05/22 02:46:20;;;;;;;;;;;;;;;20.13;47.28;101931.09;6128748;23;19909;-85
2022/05/22 02:48:46;;;;;;;;;;;;;;;20.11;47.16;101925.00;6128990;23;19933;-84
2022/05/22 02:51:20;;;;;;;;;;;;;;;20.12;47.19;101929.38;6128785;23;20278;-85
2022/05/22 02:53:45;;;;;;;;;;;;;;;20.12;47.21;101923.25;6128699;23;19916;-85
2022/05/22 02:56:21;;;;;;;;;;;;;;;20.09;47.23;101918.91;6128902;23;19917;-85
2022/05/22 02:58:47;;;;;;;;;;;;;;;20.09;47.17;101923.28;6102914;23;20016;-85
2022/05/22 03:01:12;;;;;;;;;;;;;;;20.09;47.02;101921.53;6078538;23;20315;-84
2022/05/22 03:03:37;;;;;;;;;;;;;;;20.08;47.25;101919.81;6078747;23;19920;-85
2022/05/22 03:08:47;;;;;;;;;;;;;;;20.10;47.17;101917.19;6128854;23;20377;-74
2022/05/22 03:11:12;;;;;;;;;;;;;;;20.09;47.19;101920.66;6128368;23;19909;-74
2022/05/22 03:13:38;;;;;;;;;;;;;;;20.08;47.12;101921.56;6101794;23;19917;-74
2022/05/22 03:16:03;;;;;;;;;;;;;;;20.09;47.25;101923.28;6128380;23;19936;-74
2022/05/22 03:18:29;;;;;;;;;;;;;;;20.09;47.30;101921.53;6128251;23;19909;-75
2022/05/22 03:20:54;;;;;;;;;;;;;;;20.09;47.08;101915.44;6128404;23;20273;-75
2022/05/22 03:23:19;;;;;;;;;;;;;;;20.08;47.15;101911.97;6128335;23;19913;-74
2022/05/22 03:25:46;;;;;;;;;;;;;;;20.07;47.28;101909.34;6128432;23;19909;-74
2022/05/22 03:28:12;;;;;;;;;;;;;;;20.05;47.22;101906.72;6102410;23;19919;-74
2022/05/22 03:30:37;;;;;;;;;;;;;;;20.06;47.20;101907.63;6078419;23;19984;-74
2022/05/22 03:33:02;;;;;;;;;;;;;;;20.06;47.07;101905.00;6127985;23;20318;-75
2022/05/22 03:35:28;;;;;;;;;;;;;;;20.03;47.09;101900.63;6128011;23;19913;-74
2022/05/22 03:37:53;;;;;;;;;;;;;;;20.01;47.09;101898.91;6127908;23;19913;-75
2022/05/22 03:40:18;;;;;;;;;;;;;;;20.02;47.13;101893.69;6128736;23;19941;-74
2022/05/22 03:42:43;;;;;;;;;;;;;;;20.02;47.09;101892.81;6128166;23;20003;-74
2022/05/22 03:45:09;;;;;;;;;;;;;;;20.01;47.13;101894.56;6102280;23;19913;-74
2022/05/22 03:47:34;;;;;;;;;;;;;;;20.03;47.18;101894.53;6128506;23;19928;-74
2022/05/22 03:50:04;;;;;;;;;;;;;;;20.01;47.03;101888.44;6128310;23;20317;-74
2022/05/22 03:52:34;;;;;;;;;;;;;;;20.02;47.19;101882.38;6127768;23;20385;-74
2022/05/22 03:54:59;;;;;;;;;;;;;;;20.02;47.19;101879.75;6102045;23;20090;-74
2022/05/22 03:57:25;;;;;;;;;;;;;;;20.00;47.09;101887.59;6127782;23;20513;-74
2022/05/22 03:59:50;;;;;;;;;;;;;;;19.98;47.19;101883.25;6128011;23;19949;-74
2022/05/22 04:02:15;;;;;;;;;;;;;;;20.01;47.20;101883.22;6101579;23;19940;-74
2022/05/22 04:04:41;;;;;;;;;;;;;;;20.00;47.11;101873.66;6102013;23;20326;-75
2022/05/22 04:07:06;;;;;;;;;;;;;;;20.02;47.09;101874.53;6127889;23;19913;-75
2022/05/22 04:09:31;;;;;;;;;;;;;;;20.03;47.09;101873.63;6127628;23;19967;-75
2022/05/22 04:11:57;;;;;;;;;;;;;;;20.02;47.14;101877.16;6127734;23;19912;-77
2022/05/22 04:14:23;;;;;;;;;;;;;;;20.02;47.19;101874.53;6127604;23;19913;-76
2022/05/22 04:16:48;;;;;;;;;;;;;;;20.02;47.25;101880.63;6101966;23;19915;-76
2022/05/22 04:19:15;;;;;;;;;;;;;;;20.02;47.30;101885.84;6128268;23;20345;-76
2022/05/22 04:21:40;;;;;;;;;;;;;;;20.04;47.25;101878.00;6128034;23;19908;-76
2022/05/22 04:26:50;;;;;;;;;;;;;;;20.05;47.10;101872.75;6127385;23;19915;-76
2022/05/22 04:29:15;;;;;;;;;;;;;;;20.06;47.10;101861.44;6127222;23;19913;-76
2022/05/22 04:31:40;;;;;;;;;;;;;;;20.06;47.07;101857.97;6127426;23;19988;-76
2022/05/22 04:34:05;;;;;;;;;;;;;;;20.07;47.21;101859.69;6127505;23;20278;-76
2022/05/22 04:36:31;;;;;;;;;;;;;;;20.06;47.07;101855.34;6101508;23;19909;-76
2022/05/22 04:38:56;;;;;;;;;;;;;;;20.08;47.18;101853.63;6101779;23;19913;-76
2022/05/22 04:41:21;;;;;;;;;;;;;;;20.07;47.08;101857.09;6127623;23;19913;-76
2022/05/22 04:43:47;;;;;;;;;;;;;;;20.10;47.02;101857.09;6101568;23;20306;-76
2022/05/22 04:46:12;;;;;;;;;;;;;;;20.09;47.19;101856.19;6101720;23;20322;-75
2022/05/22 04:48:37;;;;;;;;;;;;;;;20.10;47.18;101855.34;6127359;23;20283;-76
2022/05/22 04:51:02;;;;;;;;;;;;;;;20.11;47.09;101864.03;6127540;23;20280;-76
2022/05/22 04:53:28;;;;;;;;;;;;;;;20.14;46.98;101862.28;6101767;23;19983;-76
2022/05/22 04:55:53;;;;;;;;;;;;;;;20.23;46.95;101855.25;6101497;23;19916;-76
2022/05/22 04:58:19;;;;;;;;;;;;;;;20.47;46.92;101863.00;6128088;23;19909;-75
2022/05/22 05:00:45;;;;;;;;;;;;;;;20.55;46.70;101863.81;6127312;23;20294;-76
2022/05/22 05:03:11;;;;;;;;;;;;;;;20.63;46.46;101869.03;6127072;23;19975;-76
2022/05/22 05:05:36;;;;;;;;;;;;;;;20.71;46.46;101869.88;6101246;23;19913;-75
2022/05/22 05:08:01;;;;;;;;;;;;;;;20.77;46.20;101868.09;6127119;23;19913;-75
2022/05/22 05:10:27;;;;;;;;;;;;;;;20.82;46.27;101864.56;6127358;23;19993;-75
2022/05/22 05:12:53;;;;;;;;;;;;;;;20.88;46.28;101863.66;6100994;23;20353;-75
2022/05/22 05:15:19;;;;;;;;;;;;;;;20.93;46.07;101865.38;6128816;23;19909;-75
2022/05/22 05:17:45;;;;;;;;;;;;;;;20.99;45.92;101871.41;6129376;23;19909;-75
2022/05/22 05:20:11;;;;;;;;;;;;;;;21.04;45.88;101867.91;6129221;23;19944;-75
2022/05/22 05:22:37;;;;;;;;;;;;;;;21.11;46.01;101858.25;6128270;23;19916;-75
2022/05/22 05:25:03;;;;;;;;;;;;;;;21.14;45.93;101864.34;6129090;23;19913;-75
2022/05/22 05:27:28;;;;;;;;;;;;;;;21.20;45.90;101866.03;6128856;23;19913;-75
2022/05/22 05:29:53;;;;;;;;;;;;;;;21.24;45.90;101864.25;6102671;23;19913;-74
2022/05/22 05:32:19;;;;;;;;;;;;;;;21.29;45.89;101872.94;6129081;23;19913;-75
2022/05/22 05:34:44;;;;;;;;;;;;;;;21.31;46.07;101872.03;6103069;23;19910;-75
2022/05/22 05:37:09;;;;;;;;;;;;;;;21.36;46.08;101862.41;6129024;23;19958;-75
2022/05/22 05:39:35;;;;;;;;;;;;;;;21.41;45.91;101866.72;6129373;23;19920;-75
2022/05/22 05:42:00;;;;;;;;;;;;;;;21.46;45.74;101868.44;6128570;23;19985;-75
2022/05/22 05:44:26;;;;;;;;;;;;;;;21.52;45.92;101876.25;6128633;23;19968;-75
2022/05/22 05:46:51;;;;;;;;;;;;;;;21.59;45.96;101869.19;6102959;23;19935;-74
2022/05/22 05:49:16;;;;;;;;;;;;;;;21.67;45.60;101866.50;6128154;23;19913;-73
2022/05/22 05:51:41;;;;;;;;;;;;;;;21.76;45.62;101863.78;6127916;23;20219;-76
2022/05/22 05:54:07;;;;;;;;;;;;;;;21.85;45.25;101868.91;6128695;23;20007;-75
2022/05/22 05:56:36;;;;;;;;;;;;;;;21.95;45.12;101867.06;6103070;23;19976;-75
2022/05/22 05:59:01;;;;;;;;;;;;;;;22.01;45.13;101860.88;6129005;23;19916;-75
2022/05/22 06:01:26;;;;;;;;;;;;;;;22.07;44.88;101863.44;6103509;23;20245;-75
2022/05/22 06:03:52;;;;;;;;;;;;;;;22.10;44.73;101856.41;6129663;23;19964;-75
2022/05/22 06:06:18;;;;;;;;;;;;;;;22.13;44.74;101860.75;6128792;23;19920;-75
2022/05/22 06:08:44;;;;;;;;;;;;;;;22.16;44.69;101855.44;6128533;23;19909;-76
2022/05/22 06:11:09;;;;;;;;;;;;;;;22.16;44.76;101860.69;6128642;23;19913;-75
2022/05/22 06:13:35;;;;;;;;;;;;;;;22.17;44.94;101859.81;6102281;23;19952;-76
2022/05/22 06:16:02;;;;;;;;;;;;;;;22.15;44.73;101854.59;6128574;23;19917;-75
2022/05/22 06:18:27;;;;;;;;;;;;;;;22.15;44.66;101845.84;6128553;23;19917;-75
2022/05/22 06:20:52;;;;;;;;;;;;;;;22.15;44.83;101845.84;6102487;23;19919;-75
2022/05/22 06:23:17;;;;;;;;;;;;;;;22.16;44.97;101848.44;6103157;23;20322;-75
2022/05/22 06:25:44;;;;;;;;;;;;;;;22.17;44.82;101859.81;6102397;23;20352;-74
2022/05/22 06:28:14;;;;;;;;;;;;;;;22.14;45.00;101854.59;6128815;23;20245;-76
2022/05/22 06:30:39;;;;;;;;;;;;;;;22.12;45.30;101861.59;6128793;23;19909;-75
2022/05/22 06:33:08;;;;;;;;;;;;;;;22.11;45.49;101849.41;6102831;23;20064;-75
2022/05/22 06:35:34;;;;;;;;;;;;;;;22.12;45.33;101852.00;6128599;23;20237;-75
2022/05/22 06:38:00;;;;;;;;;;;;;;;22.13;45.40;101845.00;6128159;23;19988;-75
2022/05/22 06:40:25;;;;;;;;;;;;;;;22.14;45.10;101844.09;6129163;23;19909;-75
2022/05/22 06:42:50;;;;;;;;;;;;;;;22.14;44.99;101844.97;6102697;23;19913;-75
2022/05/22 06:45:21;;;;;;;;;;;;;;;22.16;44.93;101850.19;6102734;23;19924;-75
2022/05/22 06:47:46;;;;;;;;;;;;;;;22.16;45.09;101860.69;6128812;23;19956;-75
2022/05/22 06:50:13;;;;;;;;;;;;;;;22.16;44.97;101853.69;6102570;23;19912;-75
2022/05/22 06:52:39;;;;;;;;;;;;;;;22.17;44.72;101865.91;6128461;23;19924;-75
2022/05/22 06:55:05;;;;;;;;;;;;;;;22.17;44.82;101876.41;6128520;23;20222;-75
2022/05/22 06:57:30;;;;;;;;;;;;;;;22.19;44.62;101879.03;6128295;23;19916;-75
2022/05/22 06:59:56;;;;;;;;;;;;;;;22.19;44.31;101876.41;6128422;23;19913;-75
2022/05/22 07:02:22;;;;;;;;;;;;;;;22.17;44.27;101873.78;6128100;23;19909;-75
2022/05/22 07:04:47;;;;;;;;;;;;;;;22.15;44.40;101872.94;6128693;23;19909;-75
2022/05/22 07:07:13;;;;;;;;;;;;;;;22.12;44.22;101864.22;6128656;23;19912;-75
2022/05/22 07:09:38;;;;;;;;;;;;;;;22.13;44.07;101865.97;6102298;23;19909;-83
2022/05/22 07:12:10;;;;;;;;;;;;;;;22.14;43.86;101863.31;6128596;23;19909;-82
2022/05/22 07:14:36;;;;;;;;;;;;;;;22.14;43.84;101867.69;6128496;23;19919;-83
2022/05/22 07:17:02;;;;;;;;;;;;;;;22.13;43.74;101865.97;6102372;23;19917;-81
2022/05/22 07:19:27;;;;;;;;;;;;;;;22.18;43.37;101869.41;6102562;23;19909;-81
2022/05/22 07:21:53;;;;;;;;;;;;;;;22.18;43.49;101870.25;6128343;23;19924;-81
2022/05/22 07:24:18;;;;;;;;;;;;;;;22.19;43.56;101871.16;6102698;23;19909;-82
2022/05/22 07:26:43;;;;;;;;;;;;;;;22.20;43.52;101857.16;6102220;23;20309;-83
2022/05/22 07:29:09;;;;;;;;;;;;;;;22.21;43.59;101860.63;6102388;23;19913;-84
2022/05/22 07:31:34;;;;;;;;;;;;;;;22.21;43.37;101856.28;6102363;23;19920;-79
2022/05/22 07:34:00;;;;;;;;;;;;;;;22.22;43.58;101862.38;6101970;23;19995;-81
2022/05/22 07:36:25;;;;;;;;;;;;;;;22.27;43.18;101860.59;6127353;23;19984;-83
2022/05/22 07:38:51;;;;;;;;;;;;;;;22.28;42.87;101863.19;6101604;23;20329;-82
2022/05/22 07:41:18;;;;;;;;;;;;;;;22.27;43.24;101863.22;6127902;23;20297;-83
2022/05/22 07:43:43;;;;;;;;;;;;;;;22.28;42.89;101867.59;6128614;23;19909;-82
2022/05/22 07:46:09;;;;;;;;;;;;;;;22.32;43.09;101862.28;6102319;23;20215;-81
2022/05/22 07:48:34;;;;;;;;;;;;;;;22.36;42.91;101853.47;6128514;23;19908;-81
2022/05/22 07:51:01;;;;;;;;;;;;;;;22.37;43.03;101852.56;6127900;23;20385;-79
2022/05/22 07:53:27;;;;;;;;;;;;;;;22.41;42.68;101857.78;6102218;23;19920;-80
2022/05/22 07:55:52;;;;;;;;;;;;;;;22.41;42.77;101849.91;6102352;23;19909;-79
2022/05/22 07:58:18;;;;;;;;;;;;;;;22.44;42.47;101848.13;6078261;23;19913;-79
2022/05/22 08:00:43;;;;;;;;;;;;;;;22.44;42.60;101842.88;6128175;23;19968;-80
2022/05/22 08:03:14;;;;;;;;;;;;;;;22.44;42.37;101835.00;6078107;23;19924;-80
2022/05/22 08:05:39;;;;;;;;;;;;;;;22.49;42.33;101845.41;6101509;23;20441;-80
2022/05/22 08:08:05;;;;;;;;;;;;;;;22.52;42.41;101835.75;6127973;23;19913;-79
2022/05/22 08:10:30;;;;;;;;;;;;;;;22.54;42.25;101828.75;6127654;23;19987;-80
2022/05/22 08:12:55;;;;;;;;;;;;;;;22.54;42.16;101831.38;6077653;23;19972;-79
2022/05/22 08:15:22;;;;;;;;;;;;;;;22.58;42.03;101819.06;6101691;23;20298;-80
2022/05/22 08:17:47;;;;;;;;;;;;;;;22.57;42.16;101817.34;6100026;23;20326;-80
2022/05/22 08:20:15;;;;;;;;;;;;;;;22.55;42.25;101816.50;6101353;23;19915;-80
2022/05/22 08:22:44;;;;;;;;;;;;;;;22.55;41.94;101816.50;6127803;23;19960;-81
2022/05/22 08:25:09;;;;;;;;;;;;;;;22.52;42.20;101806.91;6127533;23;20238;-80
2022/05/22 08:27:35;;;;;;;;;;;;;;;22.51;42.18;101805.16;6101510;23;20337;-83
2022/05/22 08:30:00;;;;;;;;;;;;;;;22.55;41.62;101811.25;6127801;23;19913;-80
2022/05/22 08:32:26;;;;;;;;;;;;;;;22.44;40.87;101806.16;6127136;23;19913;-84
2022/05/22 08:34:52;;;;;;;;;;;;;;;22.30;40.65;101803.72;6101895;23;19924;-83
2022/05/22 08:37:17;;;;;;;;;;;;;;;22.24;40.25;101797.72;6101406;23;19971;-81
2022/05/22 08:39:43;;;;;;;;;;;;;;;22.18;39.95;101796.00;6076903;23;20318;-82
2022/05/22 08:42:09;;;;;;;;;;;;;;;22.12;39.75;101790.84;6101590;23;19915;-80
2022/05/22 08:44:35;;;;;;;;;;;;;;;22.07;39.73;101792.66;6100605;23;19932;-82
2022/05/22 08:47:06;;;;;;;;;;;;;;;22.06;39.63;101789.19;6127585;23;20229;-81
2022/05/22 08:49:31;;;;;;;;;;;;;;;22.04;39.30;101784.84;6126286;23;19909;-82
2022/05/22 08:52:13;;;;;;;;;;;;;;;22.04;38.81;101782.22;6127567;23;19952;-84
2022/05/22 08:54:41;;;;;;;;;;;;;;;22.00;38.47;101785.78;6101756;23;19913;-81
2022/05/22 09:00:02;;;;;;;;;;;;;;;22.00;38.53;101778.78;6127669;23;20244;-86
2022/05/22 09:02:43;;;;;;;;;;;;;;;21.97;38.52;101779.69;6099115;23;19988;-89
2022/05/22 09:05:13;;;;;;;;;;;;;;;22.00;38.67;101778.78;6101634;23;19941;-85
2022/05/22 09:07:51;;;;;;;;;;;;;;;21.98;38.50;101772.69;6125471;23;19984;-84
2022/05/22 09:10:22;;;;;;;;;;;;;;;21.94;38.76;101758.72;6101842;23;19909;-86
2022/05/22 09:12:51;;;;;;;;;;;;;;;21.96;38.72;101762.22;6126762;23;19924;-76
2022/05/22 09:15:17;;;;;;;;;;;;;;;21.98;38.35;101755.19;6100123;23;20245;-75
2022/05/22 09:18:00;;;;;;;;;;;;;;;21.90;38.07;101762.28;6127223;23;19920;-75
2022/05/22 09:20:34;;;;;;;;;;;;;;;21.87;38.12;101748.38;6126785;23;19916;-75
2022/05/22 09:23:26;;;;;;;;;;;;;;;21.85;38.32;101743.13;6099611;23;19909;-75
2022/05/22 09:25:59;;;;;;;;;;;;;;;21.85;37.98;101739.66;6128506;23;19909;-86
2022/05/22 09:28:24;;;;;;;;;;;;;;;21.88;38.07;101742.22;6103819;23;19909;-86
2022/05/22 09:30:50;;;;;;;;;;;;;;;21.76;37.56;101736.28;6128448;23;19972;-87
2022/05/22 09:33:18;;;;;;;;;;;;;;;21.75;37.67;101736.28;6102274;23;19919;-78
2022/05/22 09:35:44;;;;;;;;;;;;;;;21.71;37.77;101727.63;6101422;23;19909;-78
2022/05/22 09:38:09;;;;;;;;;;;;;;;21.68;37.77;101734.63;6127741;23;19955;-78
2022/05/22 09:40:50;;;;;;;;;;;;;;;21.65;37.64;101730.31;6101257;23;20256;-79
2022/05/22 09:43:18;;;;;;;;;;;;;;;21.67;37.77;101722.44;6102698;23;19909;-79
2022/05/22 09:45:57;;;;;;;;;;;;;;;21.67;37.86;101718.06;6101343;23;19909;-76
2022/05/22 09:48:43;;;;;;;;;;;;;;;21.67;37.77;101720.69;6101344;23;19915;-76
2022/05/22 09:51:15;;;;;;;;;;;;;;;21.63;37.44;101725.97;6101173;23;20249;-77
2022/05/22 09:53:59;;;;;;;;;;;;;;;21.60;37.60;101723.38;6100967;23;20312;-78
2022/05/22 09:56:24;;;;;;;;;;;;;;;21.61;37.58;101723.38;6101331;23;19976;-73
2022/05/22 09:59:08;;;;;;;;;;;;;;;21.61;37.44;101712.88;6127098;23;20321;-78
2022/05/22 10:01:37;;;;;;;;;;;;;;;21.59;37.72;101717.28;6102247;23;19984;-78
2022/05/22 10:04:32;;;;;;;;;;;;;;;21.60;37.25;101716.41;6103606;23;19913;-80
2022/05/22 10:06:58;;;;;;;;;;;;;;;21.62;37.68;101716.38;6095084;23;20274;-81
2022/05/22 10:09:48;;;;;;;;;;;;;;;21.64;37.67;101714.59;6119358;23;19909;-81
2022/05/22 10:22:03;;;;;;;;;;;;;;;21.59;36.73;101703.31;6092699;23;20028;-84
2022/05/22 10:24:36;;;;;;;;;;;;;;;21.59;36.95;101708.56;6087053;23;19984;-82
2022/05/22 10:27:17;;;;;;;;;;;;;;;21.59;36.91;101706.81;6068228;23;19910;-82
2022/05/22 10:29:50;;;;;;;;;;;;;;;21.59;37.31;101701.56;6141723;23;19924;-81
2022/05/22 10:32:34;;;;;;;;;;;;;;;21.62;37.30;101696.28;6135834;23;19909;-81
2022/05/22 10:34:59;;;;;;;;;;;;;;;21.66;37.49;101694.50;6135336;23;19912;-80
2022/05/22 10:37:32;;;;;;;;;;;;;;;21.66;37.50;101687.50;6135718;23;20325;-82
2022/05/22 10:39:59;;;;;;;;;;;;;;;21.65;37.55;101687.53;6145413;23;19908;-81
2022/05/22 10:42:47;;;;;;;;;;;;;;;21.65;37.51;101677.91;6147139;23;19910;-82
2022/05/22 10:48:06;;;;;;;;;;;;;;;21.66;37.61;101686.63;6176599;23;19920;-83
2022/05/22 10:50:31;;;;;;;;;;;;;;;21.62;37.30;101683.16;6147099;23;19913;-83
2022/05/22 10:55:45;;;;;;;;;;;;;;;21.60;37.73;101673.59;6134046;23;19979;-82
2022/05/22 10:58:22;;;;;;;;;;;;;;;21.64;41.30;101672.69;6112661;23;20245;-82
2022/05/22 11:00:52;;;;;;;;;;;;;;;21.73;42.31;101680.41;6116285;23;19909;-80
2022/05/22 11:03:17;;;;;;;;;;;;;;;21.78;42.56;101673.38;6107963;23;19996;-79
2022/05/22 11:05:49;;;;;;;;;;;;;;;21.80;44.18;101663.75;6104866;23;19913;-81
2022/05/22 11:08:23;;;;;;;;;;;;;;;21.81;44.22;101669.84;6108278;23;20241;-78
2022/05/22 11:10:48;;;;;;;;;;;;;;;21.79;44.41;101667.25;6086326;23;19992;-81
2022/05/22 11:13:20;;;;;;;;;;;;;;;21.77;44.83;101655.91;6106805;23;19917;-79
2022/05/22 11:15:45;;;;;;;;;;;;;;;21.77;45.46;101648.06;6106119;23;19913;-79
2022/05/22 11:18:18;;;;;;;;;;;;;;;21.77;45.80;101642.81;6081969;23;19959;-79
2022/05/22 11:21:03;;;;;;;;;;;;;;;21.77;46.13;101648.06;6106671;23;19920;-79
2022/05/22 11:23:32;;;;;;;;;;;;;;;21.75;46.63;101642.84;6107670;23;19913;-79
2022/05/22 11:26:16;;;;;;;;;;;;;;;21.74;46.80;101638.50;6104929;23;19908;-79
2022/05/22 11:28:56;;;;;;;;;;;;;;;21.74;47.07;101635.00;6106523;23;19959;-79
2022/05/22 11:31:27;;;;;;;;;;;;;;;21.73;47.52;101633.25;6134793;23;19909;-79
2022/05/22 11:33:58;;;;;;;;;;;;;;;21.73;47.90;101631.53;6108146;23;20199;-79
2022/05/22 11:36:37;;;;;;;;;;;;;;;21.73;47.96;101631.53;6106938;23;19940;-79
2022/05/22 11:39:18;;;;;;;;;;;;;;;21.75;48.11;101629.75;6105776;23;19988;-79
2022/05/22 11:41:47;;;;;;;;;;;;;;;21.74;48.48;101627.16;6104978;23;19936;-79
2022/05/22 11:44:31;;;;;;;;;;;;;;;21.74;48.67;101633.25;6104770;23;19909;-79
2022/05/22 11:46:56;;;;;;;;;;;;;;;21.73;48.91;101621.06;6104743;23;19948;-80
2022/05/22 11:49:33;;;;;;;;;;;;;;;21.73;48.99;101607.06;6102888;23;19971;-79
2022/05/22 11:52:53;;;;;;;;;;;;;;;21.73;48.90;101599.19;6103561;23;19913;-79
2022/05/22 11:55:22;;;;;;;;;;;;;;;21.73;49.13;101597.47;6129921;23;19921;-79
2022/05/22 11:58:00;;;;;;;;;;;;;;;21.73;49.29;101591.34;6104659;23;20348;-79
2022/05/22 12:00:32;;;;;;;;;;;;;;;21.73;49.29;101600.09;6103575;23;20322;-79
2022/05/22 12:03:00;;;;;;;;;;;;;;;21.73;49.14;101596.59;6103143;23;20405;-79
2022/05/22 12:05:38;;;;;;;;;;;;;;;21.73;49.30;101591.34;6102485;23;19920;-79
2022/05/22 12:08:22;;;;;;;;;;;;;;;21.74;49.52;101583.47;6102972;23;19912;-79
2022/05/22 12:10:53;;;;;;;;;;;;;;;21.75;49.49;101581.72;6103266;23;20215;-79
2022/05/22 12:13:34;;;;;;;;;;;;;;;21.75;49.36;101573.84;6102249;23;19913;-79
2022/05/22 12:16:05;;;;;;;;;;;;;;;21.75;49.24;101582.59;6128660;23;19916;-79
2022/05/22 12:18:49;;;;;;;;;;;;;;;21.75;49.07;101572.13;6102340;23;19909;-79
2022/05/22 12:21:34;;;;;;;;;;;;;;;21.74;49.13;101572.13;6102666;23;19909;-79
2022/05/22 12:23:59;;;;;;;;;;;;;;;21.72;48.68;101577.38;6129273;23;19963;-78
2022/05/22 12:26:25;;;;;;;;;;;;;;;21.72;48.70;101577.38;6102544;23;20330;-79
2022/05/22 12:28:53;;;;;;;;;;;;;;;21.74;48.60;101569.53;6081847;23;19913;-88
2022/05/22 12:31:21;;;;;;;;;;;;;;;21.72;48.84;101556.44;6125548;23;19917;-87
2022/05/22 12:33:47;;;;;;;;;;;;;;;21.73;48.39;101567.78;6128855;23;19917;-87
2022/05/22 12:36:12;;;;;;;;;;;;;;;21.73;48.63;101554.66;6124309;23;19917;-79
2022/05/22 12:38:51;;;;;;;;;;;;;;;21.73;48.46;101549.44;6102192;23;19988;-79
2022/05/22 12:41:19;;;;;;;;;;;;;;;21.75;48.06;101547.66;6102169;23;19909;-79
2022/05/22 12:43:45;;;;;;;;;;;;;;;21.74;48.38;101528.47;6102625;23;19951;-79
2022/05/22 12:46:12;;;;;;;;;;;;;;;21.75;48.34;101529.31;6102566;23;19913;-79
2022/05/22 12:48:39;;;;;;;;;;;;;;;21.76;48.96;101529.31;6102486;23;19963;-79
2022/05/22 12:51:10;;;;;;;;;;;;;;;21.78;49.21;101529.28;6128105;23;20294;-79
2022/05/22 12:53:37;;;;;;;;;;;;;;;21.81;48.29;101518.75;6101987;23;19917;-79
2022/05/22 12:56:21;;;;;;;;;;;;;;;21.85;47.03;101519.56;6102782;23;20000;-79
2022/05/22 12:58:57;;;;;;;;;;;;;;;21.84;48.07;101518.72;6102347;23;20318;-80
2022/05/22 13:01:23;;;;;;;;;;;;;;;21.85;48.29;101522.19;6101985;23;19987;-79
2022/05/22 13:03:49;;;;;;;;;;;;;;;21.86;48.02;101516.94;6101650;23;19916;-79
2022/05/22 13:06:19;;;;;;;;;;;;;;;21.88;48.24;101514.25;6102333;23;19940;-79